createdAt,value
2023-09-01T00:01:00.503Z,3.85
2023-09-01T00:06:17.569Z,3.88
2023-09-01T00:11:12.052Z,3.72
2023-09-01T00:16:05.519Z,3.92
2023-09-01T00:21:03.421Z,3.80
2023-09-01T00:25:59.646Z,3.92
2023-09-01T00:30:53.893Z,4.38
2023-09-01T00:35:47.126Z,4.20
2023-09-01T00:40:40.374Z,4.32
2023-09-01T00:45:35.683Z,3.83
2023-09-01T00:50:29.404Z,3.75
2023-09-01T00:55:22.813Z,4.25
2023-09-01T01:00:19.479Z,4.40
2023-09-01T01:05:16.817Z,3.83
2023-09-01T01:10:18.963Z,4.38
2023-09-01T01:15:16.214Z,4.35
2023-09-01T01:20:23.740Z,4.15
2023-09-01T01:25:18.871Z,4.45
2023-09-01T01:30:15.129Z,4.50
2023-09-01T01:35:17.733Z,4.43
2023-09-01T01:40:11.818Z,4.13
2023-09-01T01:45:09.037Z,5.13
2023-09-01T01:50:02.232Z,4.88
2023-09-01T01:54:55.833Z,5.30
2023-09-01T01:59:49.691Z,5.20
2023-09-01T02:04:44.347Z,5.28
2023-09-01T02:09:37.662Z,5.35
2023-09-01T02:14:30.973Z,5.22
2023-09-01T02:19:24.339Z,5.07
2023-09-01T02:24:19.021Z,4.97
2023-09-01T02:29:12.305Z,5.40
2023-09-01T02:34:06.761Z,5.82
2023-09-01T02:39:00.568Z,5.50
2023-09-01T02:43:56.607Z,6.32
2023-09-01T02:48:50.104Z,5.50
2023-09-01T02:53:43.404Z,6.25
2023-09-01T02:58:36.936Z,5.95
2023-09-01T03:03:32.062Z,6.30
2023-09-01T03:08:25.337Z,6.03
2023-09-01T03:13:18.920Z,5.93
2023-09-01T03:18:14.393Z,6.43
2023-09-01T03:23:10.381Z,5.85
2023-09-01T03:28:03.922Z,6.07
2023-09-01T03:32:57.259Z,6.30
2023-09-01T03:37:51.012Z,6.32
2023-09-01T03:42:45.790Z,6.25
2023-09-01T03:47:39.640Z,5.90
2023-09-01T03:52:33.132Z,6.30
2023-09-01T03:57:26.464Z,6.85
2023-09-01T04:02:21.139Z,6.88
2023-09-01T04:07:14.505Z,6.30
2023-09-01T04:12:08.660Z,6.80
2023-09-01T04:17:01.888Z,6.50
2023-09-01T04:21:56.542Z,6.32
2023-09-01T04:26:49.871Z,5.82
2023-09-01T04:31:43.128Z,6.85
2023-09-01T04:36:46.589Z,6.30
2023-09-01T04:41:42.763Z,6.47
2023-09-01T04:46:36.086Z,6.38
2023-09-01T04:51:29.301Z,7.10
2023-09-01T04:56:22.570Z,6.78
2023-09-01T05:01:17.452Z,7.38
2023-09-01T05:06:12.013Z,7.00
2023-09-01T05:11:05.704Z,6.85
2023-09-01T05:15:59.009Z,6.82
2023-09-01T05:20:53.543Z,7.32
2023-09-01T05:25:52.476Z,7.50
2023-09-01T05:30:45.668Z,7.80
2023-09-01T05:35:38.889Z,7.45
2023-09-01T05:40:33.444Z,7.15
2023-09-01T05:45:26.731Z,7.15
2023-09-01T05:50:20.645Z,7.45
2023-09-01T05:55:14.691Z,7.80
2023-09-01T06:00:10.627Z,6.97
2023-09-01T06:05:07.435Z,6.93
2023-09-01T06:10:03.171Z,7.50
2023-09-01T06:14:56.463Z,7.40
2023-09-01T06:19:51.292Z,6.95
2023-09-01T06:24:44.628Z,7.35
2023-09-01T06:29:37.888Z,7.40
2023-09-01T06:34:31.176Z,7.07
2023-09-01T06:39:25.835Z,6.70
2023-09-01T06:44:19.170Z,6.70
2023-09-01T06:49:12.367Z,6.80
2023-09-01T06:54:05.773Z,6.15
2023-09-01T06:59:00.423Z,6.82
2023-09-01T07:03:53.618Z,6.55
2023-09-01T07:08:46.982Z,6.20
2023-09-01T07:13:40.153Z,5.90
2023-09-01T07:18:36.086Z,6.68
2023-09-01T07:23:29.895Z,6.55
2023-09-01T07:28:24.880Z,6.15
2023-09-01T07:33:18.357Z,5.70
2023-09-01T07:38:14.418Z,5.75
2023-09-01T07:43:07.781Z,5.95
2023-09-01T07:48:19.050Z,6.28
2023-09-01T07:53:15.666Z,6.20
2023-09-01T07:58:08.947Z,5.70
2023-09-01T08:03:02.374Z,5.88
2023-09-01T08:07:55.732Z,5.60
2023-09-01T08:12:50.338Z,6.20
2023-09-01T08:17:43.750Z,6.20
2023-09-01T08:22:37.031Z,5.70
2023-09-01T08:27:30.567Z,5.85
2023-09-01T08:32:25.233Z,5.55
2023-09-01T08:37:19.236Z,5.30
2023-09-01T08:42:14.272Z,5.47
2023-09-01T08:47:07.793Z,5.00
2023-09-01T08:52:04.707Z,4.97
2023-09-01T08:56:58.217Z,5.43
2023-09-01T09:01:51.626Z,4.35
2023-09-01T09:06:45.166Z,5.20
2023-09-01T09:11:40.720Z,4.80
2023-09-01T09:16:34.052Z,4.38
2023-09-01T09:21:29.927Z,4.97
2023-09-01T09:26:27.578Z,4.72
2023-09-01T09:31:31.374Z,4.53
2023-09-01T09:36:34.408Z,6.78
2023-09-01T09:41:27.677Z,4.72
2023-09-01T09:46:22.998Z,4.50
2023-09-01T09:51:20.434Z,4.57
2023-09-01T09:56:22.738Z,4.28
2023-09-01T10:01:21.254Z,4.25
2023-09-01T10:11:11.614Z,4.32
2023-09-01T10:16:05.982Z,4.90
2023-09-01T10:20:59.323Z,4.80
2023-09-01T10:26:16.950Z,3.80
2023-09-01T10:31:21.425Z,4.40
2023-09-01T10:36:15.611Z,4.40
2023-09-01T10:41:09.090Z,3.85
2023-09-01T10:46:29.210Z,4.70
2023-09-01T10:51:24.172Z,5.40
2023-09-01T10:56:17.583Z,4.15
2023-09-01T11:01:29.739Z,3.65
2023-09-01T11:06:23.154Z,3.70
2023-09-01T11:11:16.425Z,4.45
2023-09-01T11:16:10.607Z,4.85
2023-09-01T11:21:11.930Z,7.07
2023-09-01T11:26:05.504Z,4.00
2023-09-01T11:31:03.878Z,3.80
2023-09-01T11:41:01.931Z,3.40
2023-09-01T11:45:55.298Z,3.97
2023-09-01T11:50:48.638Z,3.50
2023-09-01T11:55:44.663Z,3.60
2023-09-01T12:00:40.268Z,3.22
2023-09-01T12:05:35.197Z,3.03
2023-09-01T12:10:28.481Z,3.63
2023-09-01T12:15:23.152Z,3.38
2023-09-01T12:20:16.601Z,3.60
2023-09-01T12:25:10.105Z,3.30
2023-09-01T12:30:07.128Z,3.28
2023-09-01T12:35:01.857Z,3.15
2023-09-01T12:39:55.073Z,3.50
2023-09-01T12:44:48.339Z,3.50
2023-09-01T12:49:44.943Z,3.55
2023-09-01T12:54:39.596Z,3.20
2023-09-01T12:59:33.624Z,3.47
2023-09-01T13:04:27.617Z,3.40
2023-09-01T13:09:20.878Z,3.47
2023-09-01T13:14:15.515Z,3.55
2023-09-01T13:19:08.836Z,4.03
2023-09-01T13:24:02.057Z,3.72
2023-09-01T13:28:55.280Z,3.63
2023-09-01T13:33:49.995Z,3.45
2023-09-01T13:38:43.231Z,3.88
2023-09-01T13:43:38.376Z,3.60
2023-09-01T13:48:31.598Z,3.60
2023-09-01T13:53:26.316Z,4.10
2023-09-01T13:58:19.506Z,4.15
2023-09-01T14:03:12.783Z,3.88
2023-09-01T14:08:07.158Z,4.25
2023-09-01T14:13:03.202Z,3.70
2023-09-01T14:17:56.506Z,4.28
2023-09-01T14:22:49.856Z,4.07
2023-09-01T14:27:43.668Z,3.90
2023-09-01T14:32:38.421Z,3.65
2023-09-01T14:37:31.650Z,3.80
2023-09-01T14:42:24.912Z,3.95
2023-09-01T14:47:18.634Z,4.35
2023-09-01T14:52:15.326Z,3.65
2023-09-01T14:57:08.675Z,3.75
2023-09-01T15:02:05.547Z,3.50
2023-09-01T15:06:59.312Z,3.42
2023-09-01T15:11:53.909Z,3.70
2023-09-01T15:16:49.218Z,3.40
2023-09-01T15:21:43.591Z,3.28
2023-09-01T15:26:39.528Z,3.50
2023-09-01T15:31:34.313Z,3.70
2023-09-01T15:36:29.440Z,8.02
2023-09-01T15:41:22.806Z,5.28
2023-09-01T15:46:16.811Z,4.00
2023-09-01T15:51:11.727Z,3.92
2023-09-01T15:56:07.634Z,5.00
2023-09-01T16:01:14.778Z,5.15
2023-09-01T16:06:14.070Z,4.28
2023-09-01T16:11:07.518Z,5.68
2023-09-01T16:16:05.288Z,3.80
2023-09-01T16:21:05.001Z,3.72
2023-09-01T16:25:59.979Z,3.83
2023-09-01T16:30:53.953Z,3.63
2023-09-01T16:35:55.464Z,3.97
2023-09-01T16:40:51.694Z,4.43
2023-09-01T16:45:46.405Z,4.05
2023-09-01T16:50:39.668Z,4.68
2023-09-01T16:55:33.023Z,4.13
2023-09-01T17:00:27.282Z,3.60
2023-09-01T17:05:22.133Z,2.92
2023-09-01T17:10:18.398Z,2.90
2023-09-01T17:15:12.491Z,3.88
2023-09-01T17:20:07.175Z,3.97
2023-09-01T17:25:01.965Z,3.45
2023-09-01T17:29:55.452Z,3.83
2023-09-01T17:34:48.859Z,4.03
2023-09-01T17:39:42.379Z,4.35
2023-09-01T17:44:37.470Z,5.53
2023-09-01T17:49:32.222Z,5.90
2023-09-01T17:54:25.892Z,5.85
2023-09-01T17:59:20.016Z,4.60
2023-09-01T18:04:14.676Z,4.82
2023-09-01T18:09:08.096Z,4.20
2023-09-01T18:14:01.594Z,4.95
2023-09-01T18:18:56.439Z,3.70
2023-09-01T18:23:51.061Z,4.43
2023-09-01T18:28:46.119Z,4.45
2023-09-01T18:33:43.583Z,4.32
2023-09-01T18:38:36.877Z,3.60
2023-09-01T18:43:31.988Z,4.03
2023-09-01T18:48:25.888Z,4.68
2023-09-01T18:53:19.776Z,3.70
2023-09-01T18:58:16.747Z,3.75
2023-09-01T19:03:12.099Z,4.00
2023-09-01T19:08:18.445Z,3.92
2023-09-01T19:13:12.981Z,4.10
2023-09-01T19:18:09.920Z,3.70
2023-09-01T19:23:12.924Z,3.47
2023-09-01T19:28:14.068Z,3.58
2023-09-01T19:33:17.445Z,3.40
2023-09-01T19:38:14.988Z,3.73
2023-09-01T19:43:09.266Z,3.08
2023-09-01T19:48:04.272Z,3.55
2023-09-01T19:52:57.822Z,3.95
2023-09-01T19:57:53.229Z,3.60
2023-09-01T20:02:46.701Z,4.50
2023-09-01T20:07:40.027Z,4.18
2023-09-01T20:12:36.388Z,4.97
2023-09-01T20:17:30.980Z,4.32
2023-09-01T20:22:24.262Z,3.95
2023-09-01T20:27:17.491Z,3.80
2023-09-01T20:32:11.236Z,4.35
2023-09-01T20:37:06.368Z,4.13
2023-09-01T20:41:59.610Z,3.55
2023-09-01T20:46:54.714Z,3.97
2023-09-01T20:51:47.922Z,3.78
2023-09-01T20:56:42.587Z,4.05
2023-09-01T21:01:35.774Z,4.20
2023-09-01T21:06:28.987Z,4.07
2023-09-01T21:11:22.170Z,4.47
2023-09-01T21:16:16.852Z,4.05
2023-09-01T21:21:10.096Z,4.15
2023-09-01T21:26:03.280Z,4.65
2023-09-01T21:30:56.667Z,4.35
2023-09-01T21:35:51.273Z,4.32
2023-09-01T21:40:44.685Z,4.43
2023-09-01T21:45:38.153Z,4.30
2023-09-01T21:50:31.375Z,4.72
2023-09-01T21:55:29.168Z,5.30
2023-09-01T22:00:22.592Z,5.38
2023-09-01T22:05:15.829Z,4.35
2023-09-01T22:10:10.678Z,4.15
2023-09-01T22:15:05.944Z,4.28
2023-09-01T22:19:59.241Z,4.07
2023-09-01T22:24:52.438Z,4.43
2023-09-01T22:29:47.296Z,4.50
2023-09-01T22:34:42.031Z,3.65
2023-09-01T22:39:35.557Z,4.32
2023-09-01T22:44:28.882Z,4.47
2023-09-01T22:49:22.307Z,4.30
2023-09-01T22:54:16.895Z,3.90
2023-09-01T22:59:10.116Z,4.47
2023-09-01T23:04:08.107Z,3.80
2023-09-01T23:09:01.524Z,4.28
2023-09-01T23:13:56.253Z,3.88
2023-09-01T23:18:49.740Z,3.65
2023-09-01T23:23:43.149Z,4.30
2023-09-01T23:28:36.452Z,4.10
2023-09-01T23:33:31.284Z,3.88
2023-09-01T23:38:24.658Z,4.50
2023-09-01T23:43:18.193Z,4.05
2023-09-01T23:48:11.730Z,3.80
2023-09-01T23:53:06.619Z,4.05
2023-09-01T23:57:59.937Z,4.95
